createdAt,value
2023-04-25T00:00:00.268Z,64.01
2023-04-25T00:05:04.630Z,64.16
2023-04-25T00:10:07.380Z,65.34
2023-04-25T00:15:10.610Z,61.94
2023-04-25T00:20:12.549Z,62.48
2023-04-25T00:25:14.021Z,62.50
2023-04-25T00:30:21.884Z,63.50
2023-04-25T00:35:23.528Z,63.70
2023-04-25T00:40:25.150Z,64.41
2023-04-25T00:45:33.051Z,62.78
2023-04-25T00:50:35.086Z,64.53
2023-04-25T00:55:37.199Z,64.50
2023-04-25T01:00:39.078Z,64.57
2023-04-25T01:05:43.224Z,65.02
2023-04-25T01:10:44.726Z,64.10
2023-04-25T01:15:46.415Z,66.24
2023-04-25T01:20:51.459Z,65.65
2023-04-25T01:25:53.577Z,66.95
2023-04-25T01:30:55.800Z,66.95
2023-04-25T01:35:57.364Z,66.34
2023-04-25T01:40:58.981Z,65.74
2023-04-25T01:46:00.790Z,65.53
2023-04-25T01:51:02.346Z,67.67
2023-04-25T01:56:04.484Z,66.30
2023-04-25T02:01:06.036Z,66.39
2023-04-25T02:06:07.872Z,67.89
2023-04-25T02:11:09.380Z,69.66
2023-04-25T02:16:10.934Z,69.14
2023-04-25T02:21:12.640Z,69.88
2023-04-25T02:26:14.441Z,69.61
2023-04-25T02:31:16.334Z,69.23
2023-04-25T02:36:17.895Z,68.54
2023-04-25T02:41:19.420Z,68.18
2023-04-25T02:46:32.231Z,67.51
2023-04-25T02:51:39.710Z,67.80
2023-04-25T02:56:41.219Z,67.75
2023-04-25T03:01:42.770Z,68.09
2023-04-25T03:06:44.326Z,68.61
2023-04-25T03:11:46.879Z,69.00
2023-04-25T03:16:48.487Z,68.67
2023-04-25T03:21:50.198Z,69.03
2023-04-25T03:26:51.738Z,68.98
2023-04-25T03:31:53.319Z,68.89
2023-04-25T03:36:55.106Z,69.13
2023-04-25T03:41:56.602Z,69.47
2023-04-25T03:46:58.090Z,69.18
2023-04-25T03:51:59.577Z,70.08
2023-04-25T03:57:01.120Z,69.96
2023-04-25T04:02:02.626Z,70.50
2023-04-25T04:07:04.596Z,70.13
2023-04-25T04:12:07.098Z,70.33
2023-04-25T04:17:08.568Z,70.56
2023-04-25T04:22:10.114Z,71.80
2023-04-25T04:27:13.762Z,72.01
2023-04-25T04:32:16.746Z,73.16
2023-04-25T04:37:19.464Z,73.77
2023-04-25T04:42:22.280Z,72.84
2023-04-25T04:47:24.713Z,72.06
2023-04-25T04:52:26.357Z,72.47
2023-04-25T04:57:29.128Z,73.18
2023-04-25T05:02:30.754Z,73.76
2023-04-25T05:07:32.577Z,74.27
2023-04-25T05:12:35.867Z,75.24
2023-04-25T05:17:40.100Z,75.79
2023-04-25T05:22:42.845Z,75.00
2023-04-25T05:27:44.554Z,75.52
2023-04-25T05:32:47.847Z,75.24
2023-04-25T05:37:49.498Z,75.56
2023-04-25T05:42:51.470Z,75.40
2023-04-25T05:47:53.109Z,74.77
2023-04-25T05:52:54.647Z,73.87
2023-04-25T05:57:56.182Z,73.56
2023-04-25T06:02:57.870Z,73.32
2023-04-25T06:07:59.626Z,74.20
2023-04-25T06:13:01.131Z,74.39
2023-04-25T06:18:02.732Z,75.67
2023-04-25T06:23:04.298Z,76.29
2023-04-25T06:28:05.885Z,75.88
2023-04-25T06:33:07.635Z,77.58
2023-04-25T06:38:10.035Z,76.29
2023-04-25T06:43:11.696Z,76.25
2023-04-25T06:48:13.159Z,76.56
2023-04-25T06:53:15.075Z,77.00
2023-04-25T06:58:16.683Z,75.92
2023-04-25T07:03:18.484Z,75.15
2023-04-25T07:08:20.873Z,75.61
2023-04-25T07:13:22.491Z,75.41
2023-04-25T07:18:24.134Z,75.53
2023-04-25T07:23:25.634Z,76.04
2023-04-25T07:28:27.197Z,75.17
2023-04-25T07:33:28.706Z,75.81
2023-04-25T07:38:32.299Z,75.28
2023-04-25T07:43:34.041Z,74.71
2023-04-25T07:48:35.607Z,75.25
2023-04-25T07:53:38.701Z,75.63
2023-04-25T07:58:40.429Z,75.19
2023-04-25T08:03:42.173Z,75.55
2023-04-25T08:08:43.965Z,74.80
2023-04-25T08:13:45.612Z,74.83
2023-04-25T08:18:47.280Z,74.87
2023-04-25T08:23:49.069Z,74.53
2023-04-25T08:28:50.865Z,75.11
2023-04-25T08:33:53.046Z,74.57
2023-04-25T08:38:55.639Z,75.25
2023-04-25T08:44:01.662Z,75.40
2023-04-25T08:49:03.586Z,75.43
2023-04-25T08:59:18.503Z,75.45
2023-04-25T09:04:21.573Z,75.65
2023-04-25T09:09:23.245Z,74.88
2023-04-25T09:14:27.016Z,76.29
2023-04-25T09:19:41.475Z,77.00
2023-04-25T09:24:45.234Z,77.41
2023-04-25T09:29:47.461Z,76.36
2023-04-25T09:34:54.573Z,75.84
2023-04-25T09:40:03.147Z,75.30
2023-04-25T09:45:05.677Z,75.31
2023-04-25T09:50:16.583Z,75.45
2023-04-25T09:55:18.800Z,75.49
2023-04-25T10:00:22.508Z,76.85
2023-04-25T10:05:25.865Z,76.76
2023-04-25T10:10:31.449Z,75.70
2023-04-25T10:15:39.707Z,76.19
2023-04-25T10:20:41.971Z,75.26
2023-04-25T10:25:44.567Z,75.03
2023-04-25T10:30:57.867Z,75.06
2023-04-25T10:35:59.479Z,74.69
2023-04-25T10:41:10.004Z,74.63
2023-04-25T10:46:23.516Z,74.30
2023-04-25T10:51:28.501Z,73.34
2023-04-25T10:56:45.393Z,73.77
2023-04-25T11:01:50.266Z,74.63
2023-04-25T11:07:07.961Z,74.38
2023-04-25T11:12:12.774Z,75.27
2023-04-25T11:17:14.698Z,74.38
2023-04-25T11:22:16.432Z,75.17
2023-04-25T11:27:18.143Z,74.96
2023-04-25T11:32:21.512Z,74.98
2023-04-25T11:37:23.193Z,74.59
2023-04-25T11:42:24.727Z,75.29
2023-04-25T11:47:33.803Z,74.59
2023-04-25T11:52:42.781Z,73.57
2023-04-25T11:57:46.593Z,73.67
2023-04-25T12:02:53.301Z,72.85
2023-04-25T12:07:55.429Z,72.15
2023-04-25T12:12:56.989Z,71.76
2023-04-25T12:17:58.789Z,72.10
2023-04-25T12:23:01.296Z,71.82
2023-04-25T12:28:27.947Z,71.00
2023-04-25T12:33:37.498Z,70.75
2023-04-25T12:38:41.643Z,70.02
2023-04-25T12:43:43.335Z,69.15
2023-04-25T12:48:44.853Z,68.84
2023-04-25T12:53:46.472Z,69.20
2023-04-25T12:58:49.467Z,69.04
2023-04-25T13:03:51.824Z,68.79
2023-04-25T13:08:53.851Z,69.29
2023-04-25T13:13:57.063Z,69.14
2023-04-25T13:18:59.544Z,69.01
2023-04-25T13:24:01.097Z,68.23
2023-04-25T13:29:04.763Z,68.13
2023-04-25T13:34:06.387Z,68.08
2023-04-25T13:39:08.336Z,69.22
2023-04-25T13:44:09.834Z,68.74
2023-04-25T13:49:13.282Z,68.67
2023-04-25T13:54:15.111Z,69.08
2023-04-25T13:59:16.888Z,68.43
2023-04-25T14:04:18.590Z,66.69
2023-04-25T14:09:21.952Z,67.12
2023-04-25T14:14:24.591Z,67.18
2023-04-25T14:19:26.181Z,67.76
2023-04-25T14:24:27.734Z,68.09
2023-04-25T14:29:29.250Z,68.77
2023-04-25T14:34:30.818Z,70.17
2023-04-25T14:39:32.294Z,70.24
2023-04-25T14:44:33.834Z,70.34
2023-04-25T14:49:35.443Z,72.35
2023-04-25T14:54:37.401Z,72.62
2023-04-25T14:59:39.581Z,71.50
2023-04-25T15:04:41.500Z,73.91
2023-04-25T15:09:43.187Z,74.48
2023-04-25T15:14:44.813Z,75.08
2023-04-25T15:19:46.341Z,75.59
2023-04-25T15:24:47.894Z,73.36
2023-04-25T15:29:49.603Z,74.10
2023-04-25T15:34:51.098Z,74.59
2023-04-25T15:40:09.774Z,75.00
2023-04-25T15:45:12.286Z,77.11
2023-04-25T15:50:17.143Z,77.38
2023-04-25T15:55:21.671Z,77.77
2023-04-25T16:00:24.088Z,76.52
2023-04-25T16:05:25.598Z,76.22
2023-04-25T16:10:27.882Z,76.54
2023-04-25T16:15:29.498Z,76.74
2023-04-25T16:20:31.108Z,76.30
2023-04-25T16:25:32.698Z,77.51
2023-04-25T16:30:34.266Z,77.82
2023-04-25T16:35:35.852Z,76.57
2023-04-25T16:40:37.464Z,76.92
2023-04-25T16:45:39.004Z,77.22
2023-04-25T16:50:40.810Z,77.16
2023-04-25T16:55:42.301Z,77.58
2023-04-25T17:00:44.866Z,77.66
2023-04-25T17:05:46.744Z,77.81
2023-04-25T17:10:49.264Z,78.05
2023-04-25T17:15:50.864Z,78.20
2023-04-25T17:20:52.463Z,78.33
2023-04-25T17:25:54.033Z,78.26
2023-04-25T17:30:57.529Z,78.52
2023-04-25T17:35:59.131Z,77.85
2023-04-25T17:41:00.791Z,78.45
2023-04-25T17:46:02.377Z,79.04
2023-04-25T17:51:04.154Z,79.23
2023-04-25T17:56:15.812Z,78.60
2023-04-25T18:01:31.708Z,79.07
2023-04-25T18:06:33.645Z,78.65
2023-04-25T18:11:35.702Z,78.92
2023-04-25T18:16:37.240Z,78.54
2023-04-25T18:21:38.956Z,79.14
2023-04-25T18:26:40.586Z,79.13
2023-04-25T18:31:42.838Z,79.39
2023-04-25T18:36:44.315Z,78.44
2023-04-25T18:41:55.256Z,78.93
2023-04-25T18:47:01.977Z,80.54
2023-04-25T18:52:03.770Z,79.67
2023-04-25T18:57:06.313Z,79.49
2023-04-25T19:02:08.853Z,80.07
2023-04-25T19:07:10.374Z,80.21
2023-04-25T19:12:12.031Z,79.67
2023-04-25T19:17:13.594Z,78.79
2023-04-25T19:22:15.384Z,80.18
2023-04-25T19:27:16.988Z,78.16
2023-04-25T19:32:18.480Z,78.17
2023-04-25T19:37:20.578Z,78.46
2023-04-25T19:42:22.114Z,79.14
2023-04-25T19:47:24.051Z,79.77
2023-04-25T19:52:25.720Z,80.44
2023-04-25T19:57:31.994Z,80.77
2023-04-25T20:02:33.720Z,80.95
2023-04-25T20:07:35.553Z,81.59
2023-04-25T20:12:37.815Z,80.58
2023-04-25T20:17:41.729Z,81.75
2023-04-25T20:22:43.507Z,81.81
2023-04-25T20:27:45.377Z,81.14
2023-04-25T20:32:47.065Z,81.25
2023-04-25T20:37:49.386Z,82.48
2023-04-25T20:42:52.352Z,82.33
2023-04-25T20:47:54.120Z,81.32
2023-04-25T20:52:55.761Z,81.09
2023-04-25T20:57:57.901Z,81.55
2023-04-25T21:02:59.652Z,82.45
2023-04-25T21:08:01.357Z,82.97
2023-04-25T21:13:02.867Z,81.19
2023-04-25T21:18:04.692Z,81.52
2023-04-25T21:23:06.188Z,82.90
2023-04-25T21:28:08.938Z,81.15
2023-04-25T21:33:10.465Z,81.20
2023-04-25T21:38:12.788Z,81.37
2023-04-25T21:43:14.337Z,82.87
2023-04-25T21:48:15.800Z,81.22
2023-04-25T21:53:17.325Z,81.68
2023-04-25T21:58:19.662Z,82.09
2023-04-25T22:03:21.290Z,82.01
2023-04-25T22:08:23.214Z,80.69
2023-04-25T22:13:25.923Z,82.31
2023-04-25T22:18:27.482Z,81.19
2023-04-25T22:23:29.487Z,83.43
2023-04-25T22:28:31.587Z,83.15
2023-04-25T22:33:33.546Z,83.32
2023-04-25T22:38:35.079Z,83.45
2023-04-25T22:43:42.212Z,84.24
2023-04-25T22:48:44.668Z,83.50
2023-04-25T22:53:46.151Z,82.62
2023-04-25T22:58:49.806Z,84.24
2023-04-25T23:03:51.734Z,83.98
2023-04-25T23:08:53.840Z,83.90
2023-04-25T23:13:56.388Z,85.00
2023-04-25T23:18:57.885Z,84.56
2023-04-25T23:23:59.749Z,85.02
2023-04-25T23:29:01.865Z,84.52
2023-04-25T23:34:03.393Z,84.24
2023-04-25T23:39:05.597Z,84.01
2023-04-25T23:44:08.880Z,83.91
2023-04-25T23:49:10.442Z,83.64
2023-04-25T23:54:12.979Z,83.54
2023-04-25T23:59:14.467Z,83.60
